sensor_id;sensor_type;location;lat;lon;timestamp;temperature;humidity
72883;DHT22;61017;37.812;-122.286;2023-12-20T00:00:18;20.30;70.60
72883;DHT22;61017;37.812;-122.286;2023-12-20T00:01:49;20.10;71.50
72883;DHT22;61017;37.812;-122.286;2023-12-20T00:03:20;20.00;72.50
72883;DHT22;61017;37.812;-122.286;2023-12-20T00:04:51;19.90;73.20
72883;DHT22;61017;37.812;-122.286;2023-12-20T00:06:22;19.80;74.10
72883;DHT22;61017;37.812;-122.286;2023-12-20T00:07:53;19.80;74.80
72883;DHT22;61017;37.812;-122.286;2023-12-20T00:09:24;19.70;74.70
72883;DHT22;61017;37.812;-122.286;2023-12-20T00:10:55;19.70;75.50
72883;DHT22;61017;37.812;-122.286;2023-12-20T00:12:26;19.60;76.50
72883;DHT22;61017;37.812;-122.286;2023-12-20T00:13:57;19.60;76.70
72883;DHT22;61017;37.812;-122.286;2023-12-20T00:15:31;19.50;77.10
72883;DHT22;61017;37.812;-122.286;2023-12-20T00:17:02;19.50;77.60
72883;DHT22;61017;37.812;-122.286;2023-12-20T00:18:33;19.50;77.90
72883;DHT22;61017;37.812;-122.286;2023-12-20T00:20:04;19.50;78.40
72883;DHT22;61017;37.812;-122.286;2023-12-20T00:21:35;19.50;78.50
72883;DHT22;61017;37.812;-122.286;2023-12-20T00:23:06;19.40;78.50
72883;DHT22;61017;37.812;-122.286;2023-12-20T00:24:37;19.40;79.10
72883;DHT22;61017;37.812;-122.286;2023-12-20T00:26:08;19.40;79.20
72883;DHT22;61017;37.812;-122.286;2023-12-20T00:27:39;19.40;79.70
72883;DHT22;61017;37.812;-122.286;2023-12-20T00:29:10;19.30;79.60
72883;DHT22;61017;37.812;-122.286;2023-12-20T00:30:41;19.30;79.70
72883;DHT22;61017;37.812;-122.286;2023-12-20T00:32:12;19.30;79.90
72883;DHT22;61017;37.812;-122.286;2023-12-20T00:33:43;19.20;80.00
72883;DHT22;61017;37.812;-122.286;2023-12-20T00:35:14;19.20;80.10
72883;DHT22;61017;37.812;-122.286;2023-12-20T00:36:46;19.20;80.70
72883;DHT22;61017;37.812;-122.286;2023-12-20T00:38:17;19.20;80.40
72883;DHT22;61017;37.812;-122.286;2023-12-20T00:39:48;19.20;81.50
72883;DHT22;61017;37.812;-122.286;2023-12-20T00:41:19;19.20;80.90
72883;DHT22;61017;37.812;-122.286;2023-12-20T00:42:50;19.20;81.10
72883;DHT22;61017;37.812;-122.286;2023-12-20T00:44:21;19.20;81.20
72883;DHT22;61017;37.812;-122.286;2023-12-20T00:45:52;19.20;81.10
72883;DHT22;61017;37.812;-122.286;2023-12-20T00:47:23;19.20;81.40
72883;DHT22;61017;37.812;-122.286;2023-12-20T00:48:54;19.10;81.50
72883;DHT22;61017;37.812;-122.286;2023-12-20T00:50:25;19.10;81.60
72883;DHT22;61017;37.812;-122.286;2023-12-20T00:51:56;19.10;81.70
72883;DHT22;61017;37.812;-122.286;2023-12-20T00:53:27;19.10;81.80
72883;DHT22;61017;37.812;-122.286;2023-12-20T00:54:58;19.10;81.80
72883;DHT22;61017;37.812;-122.286;2023-12-20T00:56:29;19.10;81.80
72883;DHT22;61017;37.812;-122.286;2023-12-20T00:58:00;19.10;81.90
72883;DHT22;61017;37.812;-122.286;2023-12-20T00:59:31;19.10;81.90
72883;DHT22;61017;37.812;-122.286;2023-12-20T01:01:02;19.10;82.10
72883;DHT22;61017;37.812;-122.286;2023-12-20T01:02:33;19.00;82.30
72883;DHT22;61017;37.812;-122.286;2023-12-20T01:04:04;19.00;82.00
72883;DHT22;61017;37.812;-122.286;2023-12-20T01:05:35;19.00;82.30
72883;DHT22;61017;37.812;-122.286;2023-12-20T01:07:07;19.00;82.50
72883;DHT22;61017;37.812;-122.286;2023-12-20T01:08:38;19.00;82.40
72883;DHT22;61017;37.812;-122.286;2023-12-20T01:10:09;19.00;82.30
72883;DHT22;61017;37.812;-122.286;2023-12-20T01:11:40;19.00;82.50
72883;DHT22;61017;37.812;-122.286;2023-12-20T01:13:11;19.00;82.50
72883;DHT22;61017;37.812;-122.286;2023-12-20T01:14:43;18.90;82.50
72883;DHT22;61017;37.812;-122.286;2023-12-20T01:16:14;18.90;82.60
72883;DHT22;61017;37.812;-122.286;2023-12-20T01:17:45;18.90;82.60
72883;DHT22;61017;37.812;-122.286;2023-12-20T01:19:16;18.90;82.70
72883;DHT22;61017;37.812;-122.286;2023-12-20T01:20:47;18.90;82.70
72883;DHT22;61017;37.812;-122.286;2023-12-20T01:22:18;18.90;83.50
72883;DHT22;61017;37.812;-122.286;2023-12-20T01:23:49;18.90;82.80
72883;DHT22;61017;37.812;-122.286;2023-12-20T01:25:20;18.90;83.00
72883;DHT22;61017;37.812;-122.286;2023-12-20T01:26:51;18.90;82.80
72883;DHT22;61017;37.812;-122.286;2023-12-20T01:28:22;18.90;82.90
72883;DHT22;61017;37.812;-122.286;2023-12-20T01:29:53;18.90;82.80
72883;DHT22;61017;37.812;-122.286;2023-12-20T01:31:24;18.90;83.10
72883;DHT22;61017;37.812;-122.286;2023-12-20T01:32:55;18.90;83.10
72883;DHT22;61017;37.812;-122.286;2023-12-20T01:34:26;18.90;83.10
72883;DHT22;61017;37.812;-122.286;2023-12-20T01:35:57;18.90;83.10
72883;DHT22;61017;37.812;-122.286;2023-12-20T01:37:28;18.90;83.20
72883;DHT22;61017;37.812;-122.286;2023-12-20T01:39:02;18.90;83.10
72883;DHT22;61017;37.812;-122.286;2023-12-20T01:40:33;18.80;83.30
72883;DHT22;61017;37.812;-122.286;2023-12-20T01:42:04;18.90;83.30
72883;DHT22;61017;37.812;-122.286;2023-12-20T01:43:35;18.80;83.50
72883;DHT22;61017;37.812;-122.286;2023-12-20T01:45:06;18.80;83.60
72883;DHT22;61017;37.812;-122.286;2023-12-20T01:46:38;18.80;83.50
72883;DHT22;61017;37.812;-122.286;2023-12-20T01:48:09;18.80;83.60
72883;DHT22;61017;37.812;-122.286;2023-12-20T01:49:40;18.80;83.60
72883;DHT22;61017;37.812;-122.286;2023-12-20T01:51:11;18.80;83.90
72883;DHT22;61017;37.812;-122.286;2023-12-20T01:52:42;18.80;83.80
72883;DHT22;61017;37.812;-122.286;2023-12-20T01:54:14;18.80;83.80
72883;DHT22;61017;37.812;-122.286;2023-12-20T01:55:45;18.80;84.00
72883;DHT22;61017;37.812;-122.286;2023-12-20T01:57:16;18.80;84.10
72883;DHT22;61017;37.812;-122.286;2023-12-20T01:58:47;18.70;84.10
72883;DHT22;61017;37.812;-122.286;2023-12-20T02:00:19;18.80;84.30
72883;DHT22;61017;37.812;-122.286;2023-12-20T02:01:52;18.70;84.00
72883;DHT22;61017;37.812;-122.286;2023-12-20T02:03:23;18.70;84.00
72883;DHT22;61017;37.812;-122.286;2023-12-20T02:04:54;18.70;84.10
72883;DHT22;61017;37.812;-122.286;2023-12-20T02:06:25;18.70;84.10
72883;DHT22;61017;37.812;-122.286;2023-12-20T02:08:00;18.70;84.00
72883;DHT22;61017;37.812;-122.286;2023-12-20T02:09:31;18.70;84.00
72883;DHT22;61017;37.812;-122.286;2023-12-20T02:11:02;18.70;84.10
72883;DHT22;61017;37.812;-122.286;2023-12-20T02:12:33;18.70;84.00
72883;DHT22;61017;37.812;-122.286;2023-12-20T02:14:04;18.70;84.10
72883;DHT22;61017;37.812;-122.286;2023-12-20T02:15:35;18.70;84.00
72883;DHT22;61017;37.812;-122.286;2023-12-20T02:17:06;18.70;84.00
72883;DHT22;61017;37.812;-122.286;2023-12-20T02:18:37;18.70;84.00
72883;DHT22;61017;37.812;-122.286;2023-12-20T02:20:13;18.70;84.00
72883;DHT22;61017;37.812;-122.286;2023-12-20T02:21:44;18.70;83.90
72883;DHT22;61017;37.812;-122.286;2023-12-20T02:23:15;18.70;83.90
72883;DHT22;61017;37.812;-122.286;2023-12-20T02:24:46;18.70;84.00
72883;DHT22;61017;37.812;-122.286;2023-12-20T02:26:17;18.70;83.80
72883;DHT22;61017;37.812;-122.286;2023-12-20T02:27:48;18.70;83.90
72883;DHT22;61017;37.812;-122.286;2023-12-20T02:29:19;18.70;84.20
72883;DHT22;61017;37.812;-122.286;2023-12-20T02:30:50;18.70;84.10
72883;DHT22;61017;37.812;-122.286;2023-12-20T02:32:21;18.70;84.10
72883;DHT22;61017;37.812;-122.286;2023-12-20T02:33:53;18.70;84.10
72883;DHT22;61017;37.812;-122.286;2023-12-20T02:35:24;18.70;84.00
72883;DHT22;61017;37.812;-122.286;2023-12-20T02:36:55;18.70;83.90
72883;DHT22;61017;37.812;-122.286;2023-12-20T02:38:26;18.70;83.70
72883;DHT22;61017;37.812;-122.286;2023-12-20T02:39:57;18.70;83.80
72883;DHT22;61017;37.812;-122.286;2023-12-20T02:41:28;18.70;83.90
72883;DHT22;61017;37.812;-122.286;2023-12-20T02:42:59;18.70;84.00
72883;DHT22;61017;37.812;-122.286;2023-12-20T02:44:30;18.70;84.10
72883;DHT22;61017;37.812;-122.286;2023-12-20T02:46:01;18.70;84.10
72883;DHT22;61017;37.812;-122.286;2023-12-20T02:47:32;18.70;83.90
72883;DHT22;61017;37.812;-122.286;2023-12-20T02:49:03;18.70;83.90
72883;DHT22;61017;37.812;-122.286;2023-12-20T02:50:34;18.70;84.00
72883;DHT22;61017;37.812;-122.286;2023-12-20T02:52:05;18.70;83.80
72883;DHT22;61017;37.812;-122.286;2023-12-20T02:53:36;18.60;84.00
72883;DHT22;61017;37.812;-122.286;2023-12-20T02:55:08;18.60;83.90
72883;DHT22;61017;37.812;-122.286;2023-12-20T02:56:39;18.60;84.00
72883;DHT22;61017;37.812;-122.286;2023-12-20T02:58:10;18.60;84.00
72883;DHT22;61017;37.812;-122.286;2023-12-20T02:59:41;18.70;82.40
72883;DHT22;61017;37.812;-122.286;2023-12-20T03:01:12;18.80;80.00
72883;DHT22;61017;37.812;-122.286;2023-12-20T03:02:43;19.00;77.60
72883;DHT22;61017;37.812;-122.286;2023-12-20T03:04:14;19.20;75.70
72883;DHT22;61017;37.812;-122.286;2023-12-20T03:05:45;19.40;73.80
72883;DHT22;61017;37.812;-122.286;2023-12-20T03:07:16;19.60;72.20
72883;DHT22;61017;37.812;-122.286;2023-12-20T03:08:47;19.80;71.70
72883;DHT22;61017;37.812;-122.286;2023-12-20T03:10:18;19.90;69.70
72883;DHT22;61017;37.812;-122.286;2023-12-20T03:11:49;20.00;68.50
72883;DHT22;61017;37.812;-122.286;2023-12-20T03:13:20;20.10;67.70
72883;DHT22;61017;37.812;-122.286;2023-12-20T03:14:51;20.10;66.90
72883;DHT22;61017;37.812;-122.286;2023-12-20T03:16:23;20.20;66.50
72883;DHT22;61017;37.812;-122.286;2023-12-20T03:17:54;20.20;66.40
72883;DHT22;61017;37.812;-122.286;2023-12-20T03:19:25;20.20;66.20
72883;DHT22;61017;37.812;-122.286;2023-12-20T03:20:56;20.20;66.20
72883;DHT22;61017;37.812;-122.286;2023-12-20T03:22:27;20.10;66.00
72883;DHT22;61017;37.812;-122.286;2023-12-20T03:23:58;20.10;66.60
72883;DHT22;61017;37.812;-122.286;2023-12-20T03:25:29;20.10;66.70
72883;DHT22;61017;37.812;-122.286;2023-12-20T03:27:00;20.00;66.60
72883;DHT22;61017;37.812;-122.286;2023-12-20T03:28:31;20.00;66.70
72883;DHT22;61017;37.812;-122.286;2023-12-20T03:30:02;20.00;67.20
72883;DHT22;61017;37.812;-122.286;2023-12-20T03:31:33;20.00;67.70
72883;DHT22;61017;37.812;-122.286;2023-12-20T03:33:04;19.90;67.90
72883;DHT22;61017;37.812;-122.286;2023-12-20T03:34:35;19.90;69.30
72883;DHT22;61017;37.812;-122.286;2023-12-20T03:36:07;19.90;69.00
72883;DHT22;61017;37.812;-122.286;2023-12-20T03:37:38;19.80;69.60
72883;DHT22;61017;37.812;-122.286;2023-12-20T03:39:09;19.80;70.30
72883;DHT22;61017;37.812;-122.286;2023-12-20T03:40:40;19.80;71.20
72883;DHT22;61017;37.812;-122.286;2023-12-20T03:42:11;19.70;72.10
72883;DHT22;61017;37.812;-122.286;2023-12-20T03:43:42;19.70;70.60
72883;DHT22;61017;37.812;-122.286;2023-12-20T03:45:13;19.80;69.30
72883;DHT22;61017;37.812;-122.286;2023-12-20T03:46:44;19.90;68.60
72883;DHT22;61017;37.812;-122.286;2023-12-20T03:48:15;20.00;67.70
72883;DHT22;61017;37.812;-122.286;2023-12-20T03:49:46;20.10;66.60
72883;DHT22;61017;37.812;-122.286;2023-12-20T03:51:17;20.30;65.60
72883;DHT22;61017;37.812;-122.286;2023-12-20T03:52:48;20.30;64.60
72883;DHT22;61017;37.812;-122.286;2023-12-20T03:54:19;20.40;64.30
72883;DHT22;61017;37.812;-122.286;2023-12-20T03:55:50;20.40;63.80
72883;DHT22;61017;37.812;-122.286;2023-12-20T03:57:21;20.50;64.00
72883;DHT22;61017;37.812;-122.286;2023-12-20T03:58:52;20.50;63.40
72883;DHT22;61017;37.812;-122.286;2023-12-20T04:00:23;20.50;64.10
72883;DHT22;61017;37.812;-122.286;2023-12-20T04:01:54;20.40;63.70
72883;DHT22;61017;37.812;-122.286;2023-12-20T04:03:25;20.40;63.90
72883;DHT22;61017;37.812;-122.286;2023-12-20T04:04:56;20.40;64.20
72883;DHT22;61017;37.812;-122.286;2023-12-20T04:06:27;20.40;64.40
72883;DHT22;61017;37.812;-122.286;2023-12-20T04:07:59;20.30;64.30
72883;DHT22;61017;37.812;-122.286;2023-12-20T04:09:30;20.30;64.70
72883;DHT22;61017;37.812;-122.286;2023-12-20T04:11:01;20.30;65.30
72883;DHT22;61017;37.812;-122.286;2023-12-20T04:12:32;20.30;65.80
72883;DHT22;61017;37.812;-122.286;2023-12-20T04:14:03;20.30;66.40
72883;DHT22;61017;37.812;-122.286;2023-12-20T04:15:34;20.30;66.80
72883;DHT22;61017;37.812;-122.286;2023-12-20T04:17:05;20.20;67.70
72883;DHT22;61017;37.812;-122.286;2023-12-20T04:18:37;20.20;68.10
72883;DHT22;61017;37.812;-122.286;2023-12-20T04:20:08;20.10;69.10
72883;DHT22;61017;37.812;-122.286;2023-12-20T04:21:39;20.00;70.30
72883;DHT22;61017;37.812;-122.286;2023-12-20T04:23:10;20.00;69.70
72883;DHT22;61017;37.812;-122.286;2023-12-20T04:24:41;20.00;67.80
72883;DHT22;61017;37.812;-122.286;2023-12-20T04:26:12;20.10;66.80
72883;DHT22;61017;37.812;-122.286;2023-12-20T04:27:43;20.30;66.30
72883;DHT22;61017;37.812;-122.286;2023-12-20T04:29:14;20.30;65.40
72883;DHT22;61017;37.812;-122.286;2023-12-20T04:30:45;20.40;64.60
72883;DHT22;61017;37.812;-122.286;2023-12-20T04:32:16;20.50;64.00
72883;DHT22;61017;37.812;-122.286;2023-12-20T04:33:47;20.50;63.40
72883;DHT22;61017;37.812;-122.286;2023-12-20T04:35:18;20.60;62.50
72883;DHT22;61017;37.812;-122.286;2023-12-20T04:36:49;20.60;62.50
72883;DHT22;61017;37.812;-122.286;2023-12-20T04:38:20;20.60;62.50
72883;DHT22;61017;37.812;-122.286;2023-12-20T04:39:51;20.60;62.20
72883;DHT22;61017;37.812;-122.286;2023-12-20T04:41:22;20.60;62.30
72883;DHT22;61017;37.812;-122.286;2023-12-20T04:42:53;20.60;62.80
72883;DHT22;61017;37.812;-122.286;2023-12-20T04:44:24;20.50;63.00
72883;DHT22;61017;37.812;-122.286;2023-12-20T04:45:55;20.50;63.20
72883;DHT22;61017;37.812;-122.286;2023-12-20T04:47:26;20.50;63.60
72883;DHT22;61017;37.812;-122.286;2023-12-20T04:48:57;20.50;64.70
72883;DHT22;61017;37.812;-122.286;2023-12-20T04:50:28;20.50;64.50
72883;DHT22;61017;37.812;-122.286;2023-12-20T04:51:59;20.50;65.00
72883;DHT22;61017;37.812;-122.286;2023-12-20T04:53:30;20.40;65.60
72883;DHT22;61017;37.812;-122.286;2023-12-20T04:55:01;20.40;66.50
72883;DHT22;61017;37.812;-122.286;2023-12-20T04:56:32;20.30;67.20
72883;DHT22;61017;37.812;-122.286;2023-12-20T04:58:03;20.20;68.20
72883;DHT22;61017;37.812;-122.286;2023-12-20T04:59:34;20.10;69.00
72883;DHT22;61017;37.812;-122.286;2023-12-20T05:01:06;20.10;68.80
72883;DHT22;61017;37.812;-122.286;2023-12-20T05:02:37;20.10;66.70
72883;DHT22;61017;37.812;-122.286;2023-12-20T05:04:08;20.30;65.80
72883;DHT22;61017;37.812;-122.286;2023-12-20T05:05:39;20.40;65.10
72883;DHT22;61017;37.812;-122.286;2023-12-20T05:07:10;20.50;64.40
72883;DHT22;61017;37.812;-122.286;2023-12-20T05:08:41;20.50;63.60
72883;DHT22;61017;37.812;-122.286;2023-12-20T05:10:12;20.60;63.00
72883;DHT22;61017;37.812;-122.286;2023-12-20T05:11:43;20.70;62.40
72883;DHT22;61017;37.812;-122.286;2023-12-20T05:13:14;20.70;62.50
72883;DHT22;61017;37.812;-122.286;2023-12-20T05:14:46;20.70;62.40
72883;DHT22;61017;37.812;-122.286;2023-12-20T05:16:17;20.70;62.40
72883;DHT22;61017;37.812;-122.286;2023-12-20T05:17:48;20.70;62.20
72883;DHT22;61017;37.812;-122.286;2023-12-20T05:19:19;20.70;61.80
72883;DHT22;61017;37.812;-122.286;2023-12-20T05:20:50;20.70;62.20
72883;DHT22;61017;37.812;-122.286;2023-12-20T05:22:21;20.70;61.90
72883;DHT22;61017;37.812;-122.286;2023-12-20T05:23:52;20.70;61.90
72883;DHT22;61017;37.812;-122.286;2023-12-20T05:25:23;20.70;62.30
72883;DHT22;61017;37.812;-122.286;2023-12-20T05:26:54;20.60;62.90
72883;DHT22;61017;37.812;-122.286;2023-12-20T05:28:25;20.70;63.80
72883;DHT22;61017;37.812;-122.286;2023-12-20T05:29:56;20.60;64.00
72883;DHT22;61017;37.812;-122.286;2023-12-20T05:31:27;20.60;64.50
72883;DHT22;61017;37.812;-122.286;2023-12-20T05:32:58;20.50;65.00
72883;DHT22;61017;37.812;-122.286;2023-12-20T05:34:30;20.50;65.50
72883;DHT22;61017;37.812;-122.286;2023-12-20T05:36:01;20.40;65.70
72883;DHT22;61017;37.812;-122.286;2023-12-20T05:37:32;20.30;66.80
72883;DHT22;61017;37.812;-122.286;2023-12-20T05:39:03;20.20;67.60
72883;DHT22;61017;37.812;-122.286;2023-12-20T05:40:34;20.20;66.70
72883;DHT22;61017;37.812;-122.286;2023-12-20T05:42:05;20.30;65.30
72883;DHT22;61017;37.812;-122.286;2023-12-20T05:43:36;20.40;64.30
72883;DHT22;61017;37.812;-122.286;2023-12-20T05:45:07;20.50;64.20
72883;DHT22;61017;37.812;-122.286;2023-12-20T05:46:38;20.60;63.20
72883;DHT22;61017;37.812;-122.286;2023-12-20T05:48:09;20.70;62.70
72883;DHT22;61017;37.812;-122.286;2023-12-20T05:49:40;20.70;62.40
72883;DHT22;61017;37.812;-122.286;2023-12-20T05:51:11;20.70;62.80
72883;DHT22;61017;37.812;-122.286;2023-12-20T05:52:43;20.70;62.10
72883;DHT22;61017;37.812;-122.286;2023-12-20T05:54:14;20.70;61.50
72883;DHT22;61017;37.812;-122.286;2023-12-20T05:55:45;20.70;61.10
72883;DHT22;61017;37.812;-122.286;2023-12-20T05:57:16;20.70;61.30
72883;DHT22;61017;37.812;-122.286;2023-12-20T05:58:47;20.70;62.10
72883;DHT22;61017;37.812;-122.286;2023-12-20T06:00:18;20.60;63.80
72883;DHT22;61017;37.812;-122.286;2023-12-20T06:01:49;20.40;64.60
72883;DHT22;61017;37.812;-122.286;2023-12-20T06:03:20;20.30;65.10
72883;DHT22;61017;37.812;-122.286;2023-12-20T06:04:51;20.20;65.50
72883;DHT22;61017;37.812;-122.286;2023-12-20T06:06:22;20.00;66.50
72883;DHT22;61017;37.812;-122.286;2023-12-20T06:07:53;19.90;67.70
72883;DHT22;61017;37.812;-122.286;2023-12-20T06:09:25;19.90;68.70
72883;DHT22;61017;37.812;-122.286;2023-12-20T06:10:57;19.80;69.30
72883;DHT22;61017;37.812;-122.286;2023-12-20T06:12:28;19.80;70.10
72883;DHT22;61017;37.812;-122.286;2023-12-20T06:13:59;19.70;70.70
72883;DHT22;61017;37.812;-122.286;2023-12-20T06:15:30;19.60;70.90
72883;DHT22;61017;37.812;-122.286;2023-12-20T06:17:01;19.60;71.60
72883;DHT22;61017;37.812;-122.286;2023-12-20T06:18:32;19.50;72.00
72883;DHT22;61017;37.812;-122.286;2023-12-20T06:20:03;19.50;72.30
72883;DHT22;61017;37.812;-122.286;2023-12-20T06:21:34;19.50;72.80
72883;DHT22;61017;37.812;-122.286;2023-12-20T06:23:06;19.50;73.30
72883;DHT22;61017;37.812;-122.286;2023-12-20T06:24:37;19.50;73.70
72883;DHT22;61017;37.812;-122.286;2023-12-20T06:26:08;19.40;73.70
72883;DHT22;61017;37.812;-122.286;2023-12-20T06:27:39;19.40;73.70
72883;DHT22;61017;37.812;-122.286;2023-12-20T06:29:10;19.40;73.60
72883;DHT22;61017;37.812;-122.286;2023-12-20T06:30:41;19.40;74.10
72883;DHT22;61017;37.812;-122.286;2023-12-20T06:32:12;19.40;74.50
72883;DHT22;61017;37.812;-122.286;2023-12-20T06:33:43;19.40;74.70
72883;DHT22;61017;37.812;-122.286;2023-12-20T06:35:14;19.30;74.60
72883;DHT22;61017;37.812;-122.286;2023-12-20T06:36:45;19.30;74.80
72883;DHT22;61017;37.812;-122.286;2023-12-20T06:38:17;19.30;74.90
72883;DHT22;61017;37.812;-122.286;2023-12-20T06:39:48;19.30;75.00
72883;DHT22;61017;37.812;-122.286;2023-12-20T06:41:19;19.30;74.80
72883;DHT22;61017;37.812;-122.286;2023-12-20T06:42:50;19.30;75.30
72883;DHT22;61017;37.812;-122.286;2023-12-20T06:44:21;19.20;75.30
72883;DHT22;61017;37.812;-122.286;2023-12-20T06:45:52;19.20;75.40
72883;DHT22;61017;37.812;-122.286;2023-12-20T06:47:23;19.20;75.60
72883;DHT22;61017;37.812;-122.286;2023-12-20T06:48:54;19.20;75.80
72883;DHT22;61017;37.812;-122.286;2023-12-20T06:50:25;19.20;76.30
72883;DHT22;61017;37.812;-122.286;2023-12-20T06:51:56;19.20;76.70
72883;DHT22;61017;37.812;-122.286;2023-12-20T06:53:27;19.20;76.90
72883;DHT22;61017;37.812;-122.286;2023-12-20T06:54:58;19.20;77.20
72883;DHT22;61017;37.812;-122.286;2023-12-20T06:56:29;19.20;77.20
72883;DHT22;61017;37.812;-122.286;2023-12-20T06:58:01;19.20;77.50
72883;DHT22;61017;37.812;-122.286;2023-12-20T06:59:32;19.10;77.50
72883;DHT22;61017;37.812;-122.286;2023-12-20T07:01:03;19.10;77.30
72883;DHT22;61017;37.812;-122.286;2023-12-20T07:02:34;19.10;77.80
72883;DHT22;61017;37.812;-122.286;2023-12-20T07:04:05;19.10;77.90
72883;DHT22;61017;37.812;-122.286;2023-12-20T07:05:36;19.10;78.20
72883;DHT22;61017;37.812;-122.286;2023-12-20T07:07:07;19.10;78.40
72883;DHT22;61017;37.812;-122.286;2023-12-20T07:08:39;19.10;78.30
72883;DHT22;61017;37.812;-122.286;2023-12-20T07:10:11;19.10;78.00
72883;DHT22;61017;37.812;-122.286;2023-12-20T07:11:42;19.00;77.80
72883;DHT22;61017;37.812;-122.286;2023-12-20T07:13:13;19.10;78.10
72883;DHT22;61017;37.812;-122.286;2023-12-20T07:14:44;19.00;78.20
72883;DHT22;61017;37.812;-122.286;2023-12-20T07:16:15;19.00;78.50
72883;DHT22;61017;37.812;-122.286;2023-12-20T07:17:46;19.00;78.90
72883;DHT22;61017;37.812;-122.286;2023-12-20T07:19:17;19.00;78.60
72883;DHT22;61017;37.812;-122.286;2023-12-20T07:20:48;19.00;78.90
72883;DHT22;61017;37.812;-122.286;2023-12-20T07:22:19;19.00;78.90
72883;DHT22;61017;37.812;-122.286;2023-12-20T07:23:50;19.00;79.00
72883;DHT22;61017;37.812;-122.286;2023-12-20T07:25:21;19.00;79.20
72883;DHT22;61017;37.812;-122.286;2023-12-20T07:26:52;19.00;79.20
72883;DHT22;61017;37.812;-122.286;2023-12-20T07:28:23;19.00;79.10
72883;DHT22;61017;37.812;-122.286;2023-12-20T07:29:54;19.00;79.30
72883;DHT22;61017;37.812;-122.286;2023-12-20T07:31:25;19.00;79.60
72883;DHT22;61017;37.812;-122.286;2023-12-20T07:32:56;19.00;79.50
72883;DHT22;61017;37.812;-122.286;2023-12-20T07:34:27;18.90;79.80
72883;DHT22;61017;37.812;-122.286;2023-12-20T07:35:59;18.90;79.80
72883;DHT22;61017;37.812;-122.286;2023-12-20T07:37:30;18.90;80.00
72883;DHT22;61017;37.812;-122.286;2023-12-20T07:39:01;18.90;80.30
72883;DHT22;61017;37.812;-122.286;2023-12-20T07:40:32;18.90;80.20
72883;DHT22;61017;37.812;-122.286;2023-12-20T07:42:03;18.90;80.10
72883;DHT22;61017;37.812;-122.286;2023-12-20T07:43:35;18.90;80.10
72883;DHT22;61017;37.812;-122.286;2023-12-20T07:45:06;18.90;80.20
72883;DHT22;61017;37.812;-122.286;2023-12-20T07:46:37;18.90;80.20
72883;DHT22;61017;37.812;-122.286;2023-12-20T07:48:08;18.90;80.30
72883;DHT22;61017;37.812;-122.286;2023-12-20T07:49:39;18.90;80.20
72883;DHT22;61017;37.812;-122.286;2023-12-20T07:51:10;18.90;80.30
72883;DHT22;61017;37.812;-122.286;2023-12-20T07:52:41;18.80;80.30
72883;DHT22;61017;37.812;-122.286;2023-12-20T07:54:12;18.90;80.50
72883;DHT22;61017;37.812;-122.286;2023-12-20T07:55:43;18.90;80.60
72883;DHT22;61017;37.812;-122.286;2023-12-20T07:57:14;18.90;80.60
72883;DHT22;61017;37.812;-122.286;2023-12-20T07:58:45;18.90;80.70
72883;DHT22;61017;37.812;-122.286;2023-12-20T08:00:17;18.90;80.50
72883;DHT22;61017;37.812;-122.286;2023-12-20T08:01:48;18.90;80.50
72883;DHT22;61017;37.812;-122.286;2023-12-20T08:03:19;18.90;80.60
72883;DHT22;61017;37.812;-122.286;2023-12-20T08:04:50;18.90;80.60
72883;DHT22;61017;37.812;-122.286;2023-12-20T08:06:21;18.90;80.80
72883;DHT22;61017;37.812;-122.286;2023-12-20T08:07:52;18.90;81.10
72883;DHT22;61017;37.812;-122.286;2023-12-20T08:09:23;18.80;81.00
72883;DHT22;61017;37.812;-122.286;2023-12-20T08:10:54;18.80;81.00
72883;DHT22;61017;37.812;-122.286;2023-12-20T08:12:25;18.80;81.40
72883;DHT22;61017;37.812;-122.286;2023-12-20T08:13:56;18.80;81.30
72883;DHT22;61017;37.812;-122.286;2023-12-20T08:15:27;18.80;81.30
72883;DHT22;61017;37.812;-122.286;2023-12-20T08:16:58;18.80;81.30
72883;DHT22;61017;37.812;-122.286;2023-12-20T08:18:29;18.80;81.60
72883;DHT22;61017;37.812;-122.286;2023-12-20T08:20:00;18.80;81.50
72883;DHT22;61017;37.812;-122.286;2023-12-20T08:21:31;18.80;81.40
72883;DHT22;61017;37.812;-122.286;2023-12-20T08:23:02;18.80;81.60
72883;DHT22;61017;37.812;-122.286;2023-12-20T08:24:33;18.80;81.80
72883;DHT22;61017;37.812;-122.286;2023-12-20T08:26:05;18.80;82.50
72883;DHT22;61017;37.812;-122.286;2023-12-20T08:27:39;18.80;81.60
72883;DHT22;61017;37.812;-122.286;2023-12-20T08:29:12;18.80;81.60
72883;DHT22;61017;37.812;-122.286;2023-12-20T08:30:43;18.80;81.60
72883;DHT22;61017;37.812;-122.286;2023-12-20T08:32:14;18.80;81.80
72883;DHT22;61017;37.812;-122.286;2023-12-20T08:33:45;18.80;81.80
72883;DHT22;61017;37.812;-122.286;2023-12-20T08:35:17;18.80;81.90
72883;DHT22;61017;37.812;-122.286;2023-12-20T08:36:48;18.80;81.90
72883;DHT22;61017;37.812;-122.286;2023-12-20T08:38:19;18.80;81.90
72883;DHT22;61017;37.812;-122.286;2023-12-20T08:39:50;18.80;81.90
72883;DHT22;61017;37.812;-122.286;2023-12-20T08:41:21;18.80;82.30
72883;DHT22;61017;37.812;-122.286;2023-12-20T08:43:12;18.80;82.50
72883;DHT22;61017;37.812;-122.286;2023-12-20T08:44:43;18.70;82.50
72883;DHT22;61017;37.812;-122.286;2023-12-20T08:46:14;18.70;82.30
72883;DHT22;61017;37.812;-122.286;2023-12-20T08:47:45;18.70;82.10
72883;DHT22;61017;37.812;-122.286;2023-12-20T08:49:16;18.70;82.20
72883;DHT22;61017;37.812;-122.286;2023-12-20T08:50:47;18.70;82.20
72883;DHT22;61017;37.812;-122.286;2023-12-20T08:52:18;18.70;82.30
72883;DHT22;61017;37.812;-122.286;2023-12-20T08:53:49;18.70;82.60
72883;DHT22;61017;37.812;-122.286;2023-12-20T08:55:20;18.70;82.60
72883;DHT22;61017;37.812;-122.286;2023-12-20T08:56:52;18.70;82.50
72883;DHT22;61017;37.812;-122.286;2023-12-20T08:58:23;18.70;82.40
72883;DHT22;61017;37.812;-122.286;2023-12-20T08:59:54;18.80;81.50
72883;DHT22;61017;37.812;-122.286;2023-12-20T09:01:25;18.90;79.10
72883;DHT22;61017;37.812;-122.286;2023-12-20T09:02:56;19.10;76.70
72883;DHT22;61017;37.812;-122.286;2023-12-20T09:04:27;19.30;75.00
72883;DHT22;61017;37.812;-122.286;2023-12-20T09:05:58;19.50;73.40
72883;DHT22;61017;37.812;-122.286;2023-12-20T09:07:29;19.60;72.00
72883;DHT22;61017;37.812;-122.286;2023-12-20T09:09:00;19.70;70.70